createdAt,value
2018-09-10T00:01:42.146Z,101732.80
2018-09-10T00:04:11.119Z,101731.97
2018-09-10T00:06:40.106Z,101728.55
2018-09-10T00:09:09.539Z,101737.79
2018-09-10T00:11:39.191Z,101736.87
2018-09-10T00:14:08.186Z,101736.87
2018-09-10T00:16:37.215Z,101739.13
2018-09-10T00:19:06.236Z,101739.06
2018-09-10T00:21:35.263Z,101736.57
2018-09-10T00:24:04.263Z,101739.18
2018-09-10T00:26:33.497Z,101741.70
2018-09-10T00:29:02.505Z,101740.73
2018-09-10T00:31:31.500Z,101736.66
2018-09-10T00:34:00.509Z,101734.52
2018-09-10T00:36:29.498Z,101741.82
2018-09-10T00:38:58.509Z,101742.81
2018-09-10T00:41:27.882Z,101743.70
2018-09-10T00:43:56.899Z,101735.89
2018-09-10T00:46:25.890Z,101740.56
2018-09-10T00:48:54.882Z,101735.81
2018-09-10T00:51:24.202Z,101734.06
2018-09-10T00:53:53.306Z,101737.73
2018-09-10T00:56:22.662Z,101740.38
2018-09-10T00:58:51.908Z,101741.57
2018-09-10T01:01:21.554Z,101742.56
2018-09-10T01:03:50.937Z,101740.25
2018-09-10T01:06:19.953Z,101739.31
2018-09-10T01:08:48.958Z,101740.54
2018-09-10T01:11:17.963Z,101735.73
2018-09-10T01:13:46.962Z,101737.27
2018-09-10T01:16:15.999Z,101739.45
2018-09-10T01:18:44.999Z,101736.02
2018-09-10T01:21:14.030Z,101740.33
2018-09-10T01:23:43.160Z,101742.06
2018-09-10T01:26:12.182Z,101744.30
2018-09-10T01:28:41.176Z,101741.57
2018-09-10T01:31:10.389Z,101736.38
2018-09-10T01:33:44.762Z,101733.23
2018-09-10T01:36:14.077Z,101731.20
2018-09-10T01:38:43.114Z,101729.91
2018-09-10T01:41:19.013Z,101724.28
2018-09-10T01:43:48.172Z,101723.89
2018-09-10T01:46:17.245Z,101732.02
2018-09-10T01:48:46.283Z,101729.83
2018-09-10T01:51:15.340Z,101725.61
2018-09-10T01:53:44.415Z,101724.75
2018-09-10T01:56:13.718Z,101713.44
2018-09-10T01:58:42.976Z,101702.88
2018-09-10T02:01:12.215Z,101699.44
2018-09-10T02:03:41.254Z,101701.55
2018-09-10T02:06:10.433Z,101695.17
2018-09-10T02:08:39.601Z,101698.50
2018-09-10T02:11:08.679Z,101703.27
2018-09-10T02:13:37.975Z,101706.74
2018-09-10T02:16:11.091Z,101707.52
2018-09-10T02:18:40.325Z,101712.33
2018-09-10T02:21:09.345Z,101711.91
2018-09-10T02:23:38.428Z,101706.19
2018-09-10T02:26:07.644Z,101711.02
2018-09-10T02:28:36.921Z,101705.36
2018-09-10T02:31:06.377Z,101704.05
2018-09-10T02:33:35.396Z,101708.38
2018-09-10T02:36:04.878Z,101705.80
2018-09-10T02:38:33.952Z,101710.58
2018-09-10T02:41:02.928Z,101706.86
2018-09-10T02:43:31.966Z,101706.77
2018-09-10T02:46:01.203Z,101712.22
2018-09-10T02:48:30.262Z,101713.13
2018-09-10T02:50:59.265Z,101718.41
2018-09-10T02:53:28.264Z,101716.71
2018-09-10T02:55:57.300Z,101719.23
2018-09-10T02:58:26.316Z,101711.91
2018-09-10T03:00:55.357Z,101713.66
2018-09-10T03:03:24.389Z,101714.96
2018-09-10T03:05:53.422Z,101711.59
2018-09-10T03:08:22.442Z,101706.77
2018-09-10T03:10:51.496Z,101701.23
2018-09-10T03:13:20.532Z,101704.69
2018-09-10T03:15:49.609Z,101705.63
2018-09-10T03:18:18.828Z,101704.72
2018-09-10T03:20:48.217Z,101703.86
2018-09-10T03:23:17.226Z,101705.60
2018-09-10T03:25:46.580Z,101703.51
2018-09-10T03:28:15.675Z,101699.52
2018-09-10T03:30:44.978Z,101704.73
2018-09-10T03:33:14.159Z,101714.77
2018-09-10T03:35:43.170Z,101706.59
2018-09-10T03:38:12.451Z,101705.31
2018-09-10T03:40:41.468Z,101714.78
2018-09-10T03:43:10.480Z,101706.66
2018-09-10T03:45:39.479Z,101705.69
2018-09-10T03:48:08.892Z,101711.33
2018-09-10T03:50:37.889Z,101710.12
2018-09-10T03:53:07.095Z,101715.70
2018-09-10T03:55:36.324Z,101715.81
2018-09-10T03:58:05.435Z,101711.52
2018-09-10T04:00:34.590Z,101715.32
2018-09-10T04:03:03.672Z,101709.25
2018-09-10T04:05:32.912Z,101715.80
2018-09-10T04:08:02.056Z,101711.86
2018-09-10T04:10:31.048Z,101708.42
2018-09-10T04:13:00.061Z,101712.38
2018-09-10T04:15:29.491Z,101711.91
2018-09-10T04:17:58.769Z,101713.64
2018-09-10T04:20:28.005Z,101712.81
2018-09-10T04:22:57.316Z,101702.77
2018-09-10T04:25:26.314Z,101713.69
2018-09-10T04:27:55.309Z,101709.33
2018-09-10T04:30:25.073Z,101708.01
2018-09-10T04:32:54.356Z,101705.02
2018-09-10T04:35:23.644Z,101703.25
2018-09-10T04:37:52.665Z,101711.53
2018-09-10T04:40:22.024Z,101706.28
2018-09-10T04:42:51.229Z,101714.13
2018-09-10T04:45:20.232Z,101711.52
2018-09-10T04:47:49.312Z,101707.61
2018-09-10T04:50:18.389Z,101706.36
2018-09-10T04:52:47.457Z,101704.09
2018-09-10T04:55:16.752Z,101707.05
2018-09-10T04:57:45.876Z,101708.47
2018-09-10T05:00:14.888Z,101706.62
2018-09-10T05:02:44.111Z,101716.62
2018-09-10T05:05:13.106Z,101713.85
2018-09-10T05:07:42.155Z,101716.11
2018-09-10T05:10:11.147Z,101708.70
2018-09-10T05:12:40.351Z,101712.13
2018-09-10T05:15:09.421Z,101704.84
2018-09-10T05:17:38.446Z,101712.61
2018-09-10T05:20:07.743Z,101710.91
2018-09-10T05:22:43.134Z,101714.86
2018-09-10T05:25:12.176Z,101713.59
2018-09-10T05:27:41.198Z,101710.54
2018-09-10T05:30:11.471Z,101716.47
2018-09-10T05:32:40.809Z,101717.78
2018-09-10T05:35:09.811Z,101713.80
2018-09-10T05:37:38.851Z,101714.27
2018-09-10T05:40:09.308Z,101716.06
2018-09-10T05:42:38.497Z,101716.45
2018-09-10T05:45:09.814Z,101717.23
2018-09-10T05:47:39.169Z,101721.44
2018-09-10T05:50:09.157Z,101718.09
2018-09-10T05:52:38.533Z,101726.34
2018-09-10T05:55:07.859Z,101723.80
2018-09-10T05:57:37.158Z,101725.53
2018-09-10T06:00:08.484Z,101727.76
2018-09-10T06:02:37.500Z,101725.45
2018-09-10T06:05:06.586Z,101723.78
2018-09-10T06:07:35.675Z,101731.12
2018-09-10T06:10:04.825Z,101731.85
2018-09-10T06:12:33.844Z,101732.92
2018-09-10T06:15:02.899Z,101730.18
2018-09-10T06:17:31.913Z,101724.95
2018-09-10T06:20:01.209Z,101736.33
2018-09-10T06:22:30.218Z,101727.80
2018-09-10T06:24:59.550Z,101719.47
2018-09-10T06:27:28.851Z,101718.28
2018-09-10T06:29:57.871Z,101721.94
2018-09-10T06:32:26.979Z,101715.76
2018-09-10T06:34:56.366Z,101712.13
2018-09-10T06:37:25.388Z,101714.28
2018-09-10T06:39:54.444Z,101709.84
2018-09-10T06:42:23.561Z,101704.61
2018-09-10T06:44:52.569Z,101705.19
2018-09-10T06:47:21.878Z,101708.92
2018-09-10T06:49:50.922Z,101705.35
2018-09-10T06:52:20.226Z,101708.72
2018-09-10T06:54:49.354Z,101711.55
2018-09-10T06:57:18.615Z,101707.92
2018-09-10T06:59:47.700Z,101708.34
2018-09-10T07:02:16.719Z,101707.48
2018-09-10T07:04:46.052Z,101701.66
2018-09-10T07:07:15.066Z,101701.37
2018-09-10T07:09:44.384Z,101699.35
2018-09-10T07:12:13.594Z,101700.23
2018-09-10T07:14:42.807Z,101695.45
2018-09-10T07:17:11.871Z,101697.56
2018-09-10T07:19:41.329Z,101702.10
2018-09-10T07:22:10.344Z,101703.03
2018-09-10T07:24:39.484Z,101703.48
2018-09-10T07:27:08.541Z,101699.99
2018-09-10T07:29:37.659Z,101696.06
2018-09-10T07:32:06.727Z,101698.20
2018-09-10T07:34:35.824Z,101702.47
2018-09-10T07:37:04.768Z,101699.06
2018-09-10T07:39:33.827Z,101707.32
2018-09-10T07:42:02.928Z,101702.98
2018-09-10T07:44:31.936Z,101705.00
2018-09-10T07:47:00.970Z,101702.12
2018-09-10T07:49:30.024Z,101703.19
2018-09-10T07:51:59.048Z,101700.31
2018-09-10T07:54:28.120Z,101698.80
2018-09-10T07:56:57.123Z,101697.89
2018-09-10T07:59:26.372Z,101692.83
2018-09-10T08:01:55.372Z,101694.78
2018-09-10T08:04:24.492Z,101699.00
2018-09-10T08:06:53.783Z,101686.01
2018-09-10T08:09:22.930Z,101687.91
2018-09-10T08:11:51.906Z,101680.13
2018-09-10T08:14:20.901Z,101679.74
2018-09-10T08:16:49.916Z,101679.52
2018-09-10T08:19:18.980Z,101686.59
2018-09-10T08:21:48.275Z,101685.27
2018-09-10T08:24:17.369Z,101686.65
2018-09-10T08:26:46.642Z,101689.38
2018-09-10T08:29:15.857Z,101686.82
2018-09-10T08:31:45.189Z,101685.69
2018-09-10T08:34:14.207Z,101693.48
2018-09-10T08:36:43.786Z,101684.39
2018-09-10T08:39:13.175Z,101694.59
2018-09-10T08:41:42.359Z,101687.29
2018-09-10T08:44:11.474Z,101683.55
2018-09-10T08:46:40.594Z,101682.64
2018-09-10T08:49:09.622Z,101676.62
2018-09-10T08:51:38.942Z,101682.95
2018-09-10T08:54:08.170Z,101676.79
2018-09-10T08:56:37.229Z,101676.81
2018-09-10T08:59:06.417Z,101670.63
2018-09-10T09:01:35.615Z,101673.02
2018-09-10T09:04:05.040Z,101670.28
2018-09-10T09:06:34.069Z,101682.08
2018-09-10T09:09:03.416Z,101678.53
2018-09-10T09:11:32.480Z,101674.31
2018-09-10T09:14:01.482Z,101677.53
2018-09-10T09:16:30.531Z,101678.70
2018-09-10T09:19:01.724Z,101674.16
2018-09-10T09:21:30.766Z,101678.31
2018-09-10T09:23:59.851Z,101674.53
2018-09-10T09:26:28.924Z,101664.19
2018-09-10T09:28:57.913Z,101659.84
2018-09-10T09:31:27.312Z,101655.94
2018-09-10T09:33:56.646Z,101653.16
2018-09-10T09:36:31.098Z,101650.11
2018-09-10T09:39:05.320Z,101642.27
2018-09-10T09:41:39.957Z,101644.02
2018-09-10T09:44:14.208Z,101640.08
2018-09-10T09:46:43.240Z,101634.75
2018-09-10T09:49:12.282Z,101625.12
2018-09-10T09:51:41.552Z,101632.63
2018-09-10T09:54:10.780Z,101634.37
2018-09-10T09:56:39.827Z,101633.67
2018-09-10T09:59:09.111Z,101634.80
2018-09-10T10:01:45.299Z,101627.72
2018-09-10T10:04:15.014Z,101633.64
2018-09-10T10:06:44.258Z,101630.36
2018-09-10T10:09:13.269Z,101629.02
2018-09-10T10:11:42.399Z,101631.88
2018-09-10T10:14:11.822Z,101624.47
2018-09-10T10:16:40.937Z,101627.38
2018-09-10T10:19:09.949Z,101626.42
2018-09-10T10:21:39.039Z,101626.47
2018-09-10T10:24:08.085Z,101616.33
2018-09-10T10:26:37.217Z,101615.48
2018-09-10T10:29:06.598Z,101618.33
2018-09-10T10:31:35.611Z,101622.08
2018-09-10T10:34:04.851Z,101619.09
2018-09-10T10:36:34.002Z,101616.08
2018-09-10T10:39:04.185Z,101603.42
2018-09-10T10:41:33.468Z,101615.75
2018-09-10T10:44:02.508Z,101608.53
2018-09-10T10:46:31.580Z,101604.38
2018-09-10T10:49:00.625Z,101601.77
2018-09-10T10:51:29.875Z,101599.12
2018-09-10T10:53:58.974Z,101603.37
2018-09-10T10:56:28.149Z,101600.59
2018-09-10T10:58:57.208Z,101596.63
2018-09-10T11:01:26.563Z,101594.14
2018-09-10T11:03:55.620Z,101592.28
2018-09-10T11:06:25.001Z,101598.59
2018-09-10T11:08:54.174Z,101594.80
2018-09-10T11:11:23.481Z,101594.67
2018-09-10T11:13:52.495Z,101596.77
2018-09-10T11:16:21.577Z,101589.39
2018-09-10T11:18:50.597Z,101600.34
2018-09-10T11:21:19.873Z,101589.91
2018-09-10T11:23:49.337Z,101595.98
2018-09-10T11:26:18.615Z,101596.17
2018-09-10T11:28:47.757Z,101596.36
2018-09-10T11:31:16.787Z,101593.77
2018-09-10T11:33:45.837Z,101590.41
2018-09-10T11:36:14.912Z,101596.66
2018-09-10T11:38:43.996Z,101586.59
2018-09-10T11:41:13.048Z,101588.58
2018-09-10T11:43:42.430Z,101588.34
2018-09-10T11:46:11.486Z,101592.12
2018-09-10T11:48:40.809Z,101589.91
2018-09-10T11:51:09.949Z,101582.33
2018-09-10T11:53:39.249Z,101587.82
2018-09-10T11:56:08.288Z,101584.55
2018-09-10T11:58:38.288Z,101597.22
2018-09-10T12:01:07.807Z,101595.43
2018-09-10T12:03:36.973Z,101587.07
2018-09-10T12:06:06.195Z,101584.98
2018-09-10T12:08:35.215Z,101594.81
2018-09-10T12:11:04.295Z,101591.83
2018-09-10T12:13:33.431Z,101593.69
2018-09-10T12:16:02.706Z,101590.69
2018-09-10T12:18:31.711Z,101591.05
2018-09-10T12:21:00.762Z,101600.77
2018-09-10T12:23:29.765Z,101591.52
2018-09-10T12:25:59.016Z,101581.22
2018-09-10T12:28:28.033Z,101582.84
2018-09-10T12:30:57.048Z,101583.91
2018-09-10T12:33:27.033Z,101589.10
2018-09-10T12:35:56.065Z,101584.34
2018-09-10T12:38:25.096Z,101590.56
2018-09-10T12:40:54.179Z,101584.89
2018-09-10T12:43:23.182Z,101585.27
2018-09-10T12:45:52.353Z,101582.48
2018-09-10T12:48:21.412Z,101580.38
2018-09-10T12:50:50.510Z,101580.13
2018-09-10T12:53:19.495Z,101574.44
2018-09-10T12:55:48.532Z,101576.50
2018-09-10T12:58:17.552Z,101579.05
2018-09-10T13:00:46.565Z,101583.13
2018-09-10T13:03:15.575Z,101580.14
2018-09-10T13:05:44.594Z,101577.42
2018-09-10T13:08:13.680Z,101578.87
2018-09-10T13:10:42.747Z,101578.62
2018-09-10T13:13:11.731Z,101575.70
2018-09-10T13:15:41.054Z,101567.49
2018-09-10T13:18:10.174Z,101563.81
2018-09-10T13:20:39.193Z,101567.50
2018-09-10T13:23:08.907Z,101566.23
2018-09-10T13:25:38.432Z,101566.38
2018-09-10T13:28:07.542Z,101567.06
2018-09-10T13:30:36.784Z,101573.53
2018-09-10T13:33:06.209Z,101571.03
2018-09-10T13:35:35.231Z,101576.68
2018-09-10T13:38:04.240Z,101571.94
2018-09-10T13:40:33.268Z,101573.20
2018-09-10T13:43:02.538Z,101573.12
2018-09-10T13:45:31.593Z,101576.64
2018-09-10T13:48:00.618Z,101579.72
2018-09-10T13:50:29.644Z,101581.60
2018-09-10T13:52:58.912Z,101582.91
2018-09-10T13:55:28.100Z,101584.62
2018-09-10T13:57:57.413Z,101579.92
2018-09-10T14:00:26.619Z,101576.69
2018-09-10T14:02:55.851Z,101571.73
2018-09-10T14:05:24.899Z,101571.94
2018-09-10T14:07:54.322Z,101558.23
2018-09-10T14:10:23.375Z,101566.70
2018-09-10T14:12:52.806Z,101566.89
2018-09-10T14:15:21.960Z,101563.70
2018-09-10T14:17:50.995Z,101566.52
2018-09-10T14:20:20.054Z,101566.34
2018-09-10T14:22:49.103Z,101562.95
2018-09-10T14:25:18.120Z,101566.79
2018-09-10T14:27:47.255Z,101562.44
2018-09-10T14:30:16.603Z,101569.30
2018-09-10T14:32:45.615Z,101568.96
2018-09-10T14:35:14.660Z,101572.21
2018-09-10T14:37:43.973Z,101569.17
2018-09-10T14:40:13.049Z,101571.05
2018-09-10T14:42:42.849Z,101568.95
2018-09-10T14:45:11.982Z,101569.61
2018-09-10T14:47:41.002Z,101574.04
2018-09-10T14:50:10.301Z,101565.59
2018-09-10T14:52:39.706Z,101565.59
2018-09-10T14:55:08.772Z,101564.80
2018-09-10T14:57:38.020Z,101560.69
2018-09-10T15:00:07.296Z,101564.39
2018-09-10T15:02:36.575Z,101560.23
2018-09-10T15:05:05.784Z,101558.47
2018-09-10T15:07:35.136Z,101564.06
2018-09-10T15:10:04.436Z,101565.87
2018-09-10T15:12:33.524Z,101561.23
2018-09-10T15:15:02.766Z,101563.67
2018-09-10T15:17:31.827Z,101570.61
2018-09-10T15:20:01.152Z,101573.36
2018-09-10T15:22:30.602Z,101573.37
2018-09-10T15:24:59.987Z,101567.41
2018-09-10T15:27:29.005Z,101570.13
2018-09-10T15:29:58.062Z,101572.23
2018-09-10T15:32:27.115Z,101572.63
2018-09-10T15:34:56.232Z,101570.59
2018-09-10T15:37:25.272Z,101580.02
2018-09-10T15:39:54.308Z,101584.22
2018-09-10T15:42:23.337Z,101583.58
2018-09-10T15:44:52.592Z,101584.58
2018-09-10T15:47:21.997Z,101590.76
2018-09-10T15:49:51.723Z,101583.08
2018-09-10T15:52:20.764Z,101570.38
2018-09-10T15:54:49.848Z,101566.20
2018-09-10T15:57:18.956Z,101565.36
2018-09-10T15:59:48.027Z,101567.61
2018-09-10T16:02:17.268Z,101566.86
2018-09-10T16:04:46.492Z,101563.02
2018-09-10T16:07:15.795Z,101564.91
2018-09-10T16:09:45.400Z,101572.80
2018-09-10T16:12:14.407Z,101571.12
2018-09-10T16:14:43.746Z,101590.06
2018-09-10T16:17:13.144Z,101587.25
2018-09-10T16:19:42.536Z,101591.99
2018-09-10T16:22:11.802Z,101591.22
2018-09-10T16:24:40.855Z,101589.40
2018-09-10T16:27:09.895Z,101592.45
2018-09-10T16:29:39.096Z,101599.86
2018-09-10T16:32:09.260Z,101601.69
2018-09-10T16:34:39.528Z,101618.73
2018-09-10T16:37:08.607Z,101607.94
2018-09-10T16:39:37.683Z,101612.11
2018-09-10T16:42:06.817Z,101613.16
2018-09-10T16:44:36.093Z,101610.59
2018-09-10T16:47:05.126Z,101620.23
2018-09-10T16:49:34.703Z,101619.42
2018-09-10T16:52:04.056Z,101632.97
2018-09-10T16:54:33.365Z,101630.33
2018-09-10T16:57:02.468Z,101626.94
2018-09-10T16:59:31.471Z,101625.63
2018-09-10T17:02:00.556Z,101626.68
2018-09-10T17:04:29.839Z,101615.47
2018-09-10T17:06:58.926Z,101619.01
2018-09-10T17:09:28.081Z,101615.47
2018-09-10T17:11:57.119Z,101611.52
2018-09-10T17:14:29.557Z,101604.11
2018-09-10T17:16:58.737Z,101606.42
2018-09-10T17:19:27.779Z,101604.00
2018-09-10T17:21:56.924Z,101604.95
2018-09-10T17:24:26.187Z,101608.95
2018-09-10T17:26:55.370Z,101603.43
2018-09-10T17:29:24.678Z,101603.80
2018-09-10T17:31:54.837Z,101603.61
2018-09-10T17:34:24.192Z,101609.31
2018-09-10T17:36:53.475Z,101608.41
2018-09-10T17:39:22.638Z,101611.88
2018-09-10T17:41:52.262Z,101610.05
2018-09-10T17:44:21.376Z,101621.28
2018-09-10T17:46:50.630Z,101617.67
2018-09-10T17:49:20.545Z,101630.34
2018-09-10T17:51:49.612Z,101629.80
2018-09-10T17:54:19.087Z,101632.83
2018-09-10T17:56:48.139Z,101636.44
2018-09-10T17:59:17.365Z,101650.48
2018-09-10T18:01:50.206Z,101644.20
2018-09-10T18:04:19.447Z,101658.30
2018-09-10T18:06:48.499Z,101649.64
2018-09-10T18:09:17.954Z,101650.33
2018-09-10T18:11:50.692Z,101655.18
2018-09-10T18:14:19.894Z,101656.21
2018-09-10T18:16:49.183Z,101661.63
2018-09-10T18:19:19.266Z,101665.79
2018-09-10T18:21:48.931Z,101662.42
2018-09-10T18:24:18.409Z,101661.05
2018-09-10T18:26:48.949Z,101662.04
2018-09-10T18:29:18.886Z,101664.94
2018-09-10T18:31:47.921Z,101664.81
2018-09-10T18:34:17.996Z,101667.11
2018-09-10T18:36:47.583Z,101665.48
2018-09-10T18:39:17.463Z,101669.72
2018-09-10T18:41:47.783Z,101668.19
2018-09-10T18:44:16.902Z,101675.92
2018-09-10T18:46:46.421Z,101672.34
2018-09-10T18:49:15.517Z,101670.07
2018-09-10T18:51:44.875Z,101671.58
2018-09-10T18:54:16.091Z,101666.41
2018-09-10T18:56:45.146Z,101662.88
2018-09-10T18:59:14.239Z,101668.30
2018-09-10T19:01:43.466Z,101678.89
2018-09-10T19:04:12.695Z,101683.06
2018-09-10T19:06:41.878Z,101674.38
2018-09-10T19:09:11.966Z,101676.12
2018-09-10T19:11:41.400Z,101681.77
2018-09-10T19:14:10.472Z,101682.95
2018-09-10T19:16:40.178Z,101675.63
2018-09-10T19:19:09.582Z,101675.81
2018-09-10T19:21:38.786Z,101674.63
2018-09-10T19:24:08.019Z,101679.01
2018-09-10T19:26:37.162Z,101689.98
2018-09-10T19:29:06.327Z,101685.18
2018-09-10T19:31:35.783Z,101682.86
2018-09-10T19:34:04.970Z,101683.04
2018-09-10T19:36:34.335Z,101680.30
2018-09-10T19:39:04.510Z,101685.55
2018-09-10T19:41:33.999Z,101686.23
2018-09-10T19:44:03.453Z,101687.23
2018-09-10T19:46:32.726Z,101684.64
2018-09-10T19:49:02.064Z,101693.86
2018-09-10T19:51:32.537Z,101688.52
2018-09-10T19:54:02.137Z,101690.53
2018-09-10T19:56:32.015Z,101698.05
2018-09-10T19:59:01.142Z,101687.73
2018-09-10T20:01:30.197Z,101676.19
2018-09-10T20:03:59.494Z,101674.70
2018-09-10T20:06:28.630Z,101671.05
2018-09-10T20:08:57.636Z,101663.33
2018-09-10T20:11:26.709Z,101671.25
2018-09-10T20:13:55.906Z,101681.86
2018-09-10T20:16:25.007Z,101673.36
2018-09-10T20:18:54.180Z,101679.40
2018-09-10T20:21:23.485Z,101670.55
2018-09-10T20:23:52.881Z,101672.94
2018-09-10T20:26:21.930Z,101668.14
2018-09-10T20:28:51.881Z,101666.52
2018-09-10T20:31:20.991Z,101667.08
2018-09-10T20:33:55.420Z,101659.44
2018-09-10T20:36:24.560Z,101665.98
2018-09-10T20:38:54.345Z,101669.44
2018-09-10T20:41:23.739Z,101672.25
2018-09-10T20:43:53.033Z,101675.41
2018-09-10T20:46:22.097Z,101668.42
2018-09-10T20:48:51.573Z,101662.12
2018-09-10T20:51:21.022Z,101666.20
2018-09-10T20:53:50.445Z,101665.82
2018-09-10T20:56:19.547Z,101659.34
2018-09-10T20:58:48.710Z,101654.53
2018-09-10T21:01:18.112Z,101657.72
2018-09-10T21:03:47.374Z,101669.68
2018-09-10T21:06:16.809Z,101669.14
2018-09-10T21:08:46.472Z,101665.44
2018-09-10T21:11:15.684Z,101666.27
2018-09-10T21:13:45.040Z,101663.64
2018-09-10T21:16:14.108Z,101666.97
2018-09-10T21:18:43.150Z,101673.33
2018-09-10T21:21:12.712Z,101674.34
2018-09-10T21:23:41.957Z,101670.55
2018-09-10T21:26:11.276Z,101671.70
2018-09-10T21:28:40.300Z,101674.25
2018-09-10T21:31:09.566Z,101677.05
2018-09-10T21:33:38.822Z,101673.38
2018-09-10T21:36:07.929Z,101664.95
2018-09-10T21:38:37.025Z,101672.84
2018-09-10T21:41:06.091Z,101657.59
2018-09-10T21:43:35.158Z,101657.05
2018-09-10T21:46:04.273Z,101666.87
2018-09-10T21:48:33.596Z,101670.48
2018-09-10T21:51:02.765Z,101671.23
2018-09-10T21:53:32.241Z,101666.73
2018-09-10T21:56:01.301Z,101669.62
2018-09-10T21:58:31.039Z,101680.66
2018-09-10T22:01:00.289Z,101677.95
2018-09-10T22:03:29.961Z,101679.48
2018-09-10T22:05:58.989Z,101685.52
2018-09-10T22:08:28.007Z,101681.45
2018-09-10T22:10:57.082Z,101682.30
2018-09-10T22:13:26.163Z,101677.48
2018-09-10T22:15:55.203Z,101681.06
2018-09-10T22:18:24.214Z,101680.78
2018-09-10T22:20:53.518Z,101677.00
2018-09-10T22:23:22.748Z,101678.31
2018-09-10T22:25:51.991Z,101673.54
2018-09-10T22:28:20.990Z,101677.83
2018-09-10T22:30:50.419Z,101679.09
2018-09-10T22:33:19.463Z,101686.88
2018-09-10T22:35:48.510Z,101681.72
2018-09-10T22:38:17.519Z,101687.90
2018-09-10T22:40:46.564Z,101693.58
2018-09-10T22:43:15.759Z,101682.25
2018-09-10T22:45:45.012Z,101691.51
2018-09-10T22:48:14.249Z,101702.00
2018-09-10T22:50:43.706Z,101699.53
2018-09-10T22:53:12.947Z,101694.69
2018-09-10T22:55:42.247Z,101694.28
2018-09-10T22:58:11.599Z,101699.02
2018-09-10T23:00:41.140Z,101702.17
2018-09-10T23:03:10.164Z,101700.95
2018-09-10T23:05:39.169Z,101700.50
2018-09-10T23:08:08.174Z,101696.78
2018-09-10T23:10:37.200Z,101704.40
2018-09-10T23:13:06.697Z,101706.81
2018-09-10T23:15:35.723Z,101705.02
2018-09-10T23:18:04.992Z,101712.15
2018-09-10T23:20:34.063Z,101707.52
2018-09-10T23:23:03.220Z,101711.37
2018-09-10T23:25:32.222Z,101712.05
2018-09-10T23:28:01.439Z,101710.94
2018-09-10T23:30:30.464Z,101702.86
2018-09-10T23:33:00.375Z,101703.11
2018-09-10T23:35:29.956Z,101707.03
2018-09-10T23:37:59.144Z,101705.16
2018-09-10T23:40:28.438Z,101708.37
2018-09-10T23:42:57.462Z,101709.14
2018-09-10T23:45:26.758Z,101709.16
2018-09-10T23:47:55.814Z,101716.09
2018-09-10T23:50:25.468Z,101710.03
2018-09-10T23:52:54.757Z,101714.16
2018-09-10T23:55:23.955Z,101712.73
2018-09-10T23:57:52.973Z,101717.69
